Flight Track Log - Related Links

Times and Time Zones

All times are in EDT time to prevent confusion due to time zone crossing. See the UPS1337 flight status page for this flight to view local times or setup timezone preferences in your user account.

Time Position Orientation Groundspeed Altitude Reporting Facility
EDT Latitude Longitude Course Direction KTS MPH feet Rate Location/Type
Mon 09:54:41 PM 27.9000 -82.6833 330° Northwest 162 186 800  Level Tampa TRACON
Mon 09:55:05 PM 27.8833 -82.6833 180° South 161 185 2,000 2,429 Climbing Tampa TRACON
Mon 09:56:05 PM 27.8333 -82.7000 196° South 239 275 4,200 3,190 Climbing Tampa TRACON
Mon 09:57:11 PM 27.8833 -82.7500 319° Northwest 271 312 8,700 3,364 Climbing Tampa TRACON
Mon 09:58:17 PM 27.9667 -82.7667 350° North 302 348 11,600 1,245 Climbing Tampa TRACON
Mon 09:59:50 PM 28.1206 -82.7892 353° North 358 412 12,000 863 Climbing Jacksonville Center
Mon 10:00:00 PM 28.4632 -83.0252 330° Northwest  Level FlightAware Approximate
Mon 10:00:50 PM 28.2231 -82.8078 351° North 363 418 13,800  Level Jacksonville Center
Mon 10:01:50 PM 28.3253 -82.8219 353° North 368 423 16,800 2,550 Climbing Jacksonville Center
Mon 10:02:50 PM 28.4336 -82.8336 355° North 373 429 18,900 2,250 Climbing Jacksonville Center
Mon 10:03:50 PM 28.5486 -82.8500 353° North 390 449 21,300 1,800 Climbing Jacksonville Center
Mon 10:04:50 PM 28.6633 -82.8856 345° North 404 465 22,500 1,400 Climbing Jacksonville Center
Mon 10:05:50 PM 28.7678 -82.9233 342° North 420 483 24,100 1,600 Climbing Jacksonville Center
Mon 10:06:50 PM 28.8928 -82.9683 343° North 445 512 25,700 1,650 Climbing Jacksonville Center
Mon 10:07:50 PM 29.0181 -83.0161 342° North 459 528 27,400 1,700 Climbing Jacksonville Center
Mon 10:08:50 PM 29.1433 -83.0636 342° North 464 534 29,100 1,900 Climbing Jacksonville Center
Mon 10:09:50 PM 29.2706 -83.1092 343° North 469 540 31,200 1,450 Climbing Jacksonville Center
Mon 10:10:50 PM 29.3914 -83.1547 342° North 464 534 32,000 400 Climbing Jacksonville Center
Mon 10:11:50 PM 29.5311 -83.2100 341° North 472 543 32,000  Level Jacksonville Center
Mon 10:12:50 PM 29.6522 -83.2533 343° North 459 528 32,000  Level Jacksonville Center
Mon 10:19:07 PM 30.4164 -83.5365 342° North 462 532 32,000  Level FlightAware ADS-B (KONZ)
Mon 10:19:47 PM 30.4986 -83.5674 342° North 460 529 32,000  Level FlightAware ADS-B (KONZ)
Mon 10:20:37 PM 30.5980 -83.6050 342° North 455 524 32,000  Level FlightAware ADS-B (KONZ)
Mon 10:21:07 PM 30.6584 -83.6279 342° North 455 524 32,000  Level FlightAware ADS-B (KONZ)
Mon 10:21:37 PM 30.7005 -83.6439 342° North 450 518 32,000  Level FlightAware ADS-B (KONZ)
Mon 10:22:17 PM 30.7946 -83.6796 342° North 446 513 32,000  Level FlightAware ADS-B (KONZ)
Mon 10:22:47 PM 30.8555 -83.7029 342° North 448 516 32,000  Level FlightAware ADS-B (KONZ)
Mon 10:23:17 PM 30.9147 -83.7256 342° North 450 518 32,000  Level FlightAware ADS-B (KONZ)
Mon 10:23:47 PM 30.9748 -83.7483 342° North 450 518 32,000  Level FlightAware ADS-B (KONZ)
Mon 10:24:46 PM 31.0909 -83.7926 342° North 448 516 32,000  Level FlightAware ADS-B (KONZ)
Mon 10:25:22 PM 31.1563 -83.8177 342° North 449 517 32,000  Level FlightAware ADS-B (KONZ)
Mon 10:26:12 PM 31.2607 -83.8578 342° North 450 518 32,000  Level FlightAware ADS-B (KONZ)
Mon 10:27:17 PM 31.3792 -83.9075 342° North 449 517 32,000  Level Atlanta Center
Mon 10:28:17 PM 31.4983 -83.9511 343° North 444 511 32,000  Level Atlanta Center
Mon 10:29:17 PM 31.6172 -83.9853 346° North 439 505 32,000  Level Atlanta Center
Mon 10:30:17 PM 31.7425 -84.0119 350° North 439 505 32,000  Level Atlanta Center
Mon 10:31:17 PM 31.8656 -84.0364 350° North 444 511 32,000  Level Atlanta Center
Mon 10:32:17 PM 31.9886 -84.0633 349° North 450 518 32,000  Level Atlanta Center
Mon 10:33:17 PM 32.1139 -84.0928 349° North 450 518 32,000  Level Atlanta Center
Mon 10:34:17 PM 32.2392 -84.1200 350° North 450 518 32,000  Level Atlanta Center
Mon 10:35:17 PM 32.3581 -84.1469 349° North 450 518 32,000  Level Atlanta Center
Mon 10:36:17 PM 32.4811 -84.1742 349° North 450 518 32,000  Level Atlanta Center
Mon 10:37:17 PM 32.6064 -84.2042 349° North 450 518 32,000  Level Atlanta Center
Mon 10:38:17 PM 32.7317 -84.2339 349° North 450 518 32,000  Level Atlanta Center
Mon 10:39:17 PM 32.8547 -84.2664 347° North 450 518 32,000  Level Atlanta Center
Mon 10:40:17 PM 32.9778 -84.2914 350° North 450 518 32,000  Level Atlanta Center
Mon 10:41:17 PM 33.1050 -84.3217 349° North 450 518 32,000  Level Atlanta Center
Mon 10:42:17 PM 33.2178 -84.3442 351° North 450 518 32,000  Level Atlanta Center
Mon 10:43:17 PM 33.3389 -84.3719 349° North 450 518 32,000  Level Atlanta Center
Mon 10:48:23 PM 34.0816 -84.5441 348° North 440 506 32,000  Level FlightAware ADS-B (KDZJ)
Mon 10:49:03 PM 34.1634 -84.5641 348° North 440 506 32,000  Level FlightAware ADS-B (KDZJ)
Mon 10:49:42 PM 34.2437 -84.5837 349° North 447 514 32,000  Level FlightAware ADS-B (KDZJ)
Mon 10:50:23 PM 34.3259 -84.6037 349° North 447 514 32,000  Level FlightAware ADS-B (KDZJ)
Mon 10:51:03 PM 34.4064 -84.6233 349° North 446 513 32,000  Level FlightAware ADS-B (KDZJ)
Mon 10:51:43 PM 34.4885 -84.6433 349° North 446 513 32,000  Level FlightAware ADS-B (KDZJ)
Mon 10:52:22 PM 34.5675 -84.6628 349° North 447 514 32,000  Level FlightAware ADS-B (KDZJ)
Mon 10:53:03 PM 34.6507 -84.6833 348° North 447 514 32,000  Level FlightAware ADS-B (KDZJ)
Mon 10:53:42 PM 34.7296 -84.7030 348° North 440 506 32,000  Level FlightAware ADS-B (KDZJ)
Mon 10:54:22 PM 34.8109 -84.7231 348° North 441 507 32,000  Level FlightAware ADS-B (KDZJ)
Mon 10:55:03 PM 34.8937 -84.7439 348° North 441 507 32,000  Level FlightAware ADS-B (KDZJ)
Mon 10:55:43 PM 34.9747 -84.7642 348° North 443 510 32,000  Level FlightAware ADS-B (KDZJ)
Mon 10:56:23 PM 35.0562 -84.7842 348° North 444 511 32,000  Level FlightAware ADS-B (KDZJ)
Mon 10:56:56 PM 35.1256 -84.8015 348° North 445 512 32,000  Level FlightAware ADS-B (KDZJ)
Mon 10:58:12 PM 35.1822 -84.8156 348° North 442 509 32,000  Level FlightAware ADS-B (KMDQ)
Mon 10:59:14 PM 35.3136 -84.8490 348° North 452 520 32,000  Level FlightAware ADS-B (KMDQ)
Mon 10:59:54 PM 35.3975 -84.8698 348° North 454 522 32,000 -522 Level FlightAware ADS-B (KMDQ)
Mon 11:00:46 PM 35.4982 -84.8952 349° North 452 520 31,200 -462 Descending FlightAware ADS-B (KMDQ)
Mon 11:04:14 PM 35.9195 -85.0105 350° North 455 524 30,000 -247 Descending FlightAware ADS-B (KMDQ)
Mon 11:05:38 PM 36.0390 -85.0374 349° North 450 518 30,000 -340 Level FlightAware ADS-B (KMDQ)
Mon 11:06:35 PM 36.2038 -85.0756 349° North 406 467 29,200 -1,096 Descending FlightAware ADS-B (KMDQ)
Mon 11:07:33 PM 36.3120 -85.0965 North 422 486 27,900 -1,445 Descending FlightAware ADS-B (KMDQ)
Mon 11:14:16 PM 37.0428 -85.0185 North 361 415 18,100 -1,441 Descending FlightAware ADS-B
Mon 11:15:11 PM 37.1339 -85.0088 North 353 406 16,900 -1,230 Descending FlightAware ADS-B
Mon 11:18:15 PM 37.4231 -84.9777 North 335 386 13,200 -1,002 Descending FlightAware ADS-B
Mon 11:22:16 PM 37.7319 -85.0576 312° West 272 313 9,800 -820 Descending FlightAware ADS-B
Mon 11:23:15 PM 37.7789 -85.1245 311° West 258 297 9,100 -850 Descending FlightAware ADS-B
Mon 11:24:16 PM 37.8296 -85.1965 312° West 263 303 8,100 -1,000 Descending FlightAware ADS-B
Mon 11:25:15 PM 37.8660 -85.2706 290° West 258 297 7,100 -1,150 Descending FlightAware ADS-B
Mon 11:26:16 PM 37.8893 -85.3543 290° West 255 293 5,800 -1,438 Descending FlightAware ADS-B
Mon 11:27:16 PM 37.9141 -85.4429 289° West 260 299 4,200 -1,350 Descending FlightAware ADS-B
Mon 11:28:16 PM 37.9371 -85.5295 289° West 260 299 3,100 -650 Descending FlightAware ADS-B
Mon 11:29:16 PM 37.9709 -85.5933 314° West 202 232 2,900 -101 Descending FlightAware ADS-B
Mon 11:30:15 PM 38.0084 -85.6443 313° West 184 212 2,900 -50 Level FlightAware ADS-B
Mon 11:31:15 PM 38.0467 -85.6833 342° North 164 189 2,800 -446 Descending FlightAware ADS-B
Mon 11:32:16 PM 38.0849 -85.6963 345° North 121 139 2,000 -771 Descending FlightAware ADS-B
Mon 11:33:04 PM 38.1125 -85.7058 345° North 121 139 1,400 -566 Descending FlightAware ADS-B
Mon 11:34:02 PM 38.1500 -85.7167 345° North 126 145 1,000 -414 Descending Louisville TRACON
Mon 11:36:00 PM 38.1741 -85.7365 208° Southwest  Level Estimated

Login

Don't have an account? Register now (free) for customized features, flight alerts, and more!